createdAt,value
2023-03-29T00:04:02.583Z,99518.66
2023-03-29T00:08:05.159Z,99518.91
2023-03-29T00:12:07.408Z,99515.44
2023-03-29T00:22:56.756Z,99511.59
2023-03-29T00:26:59.104Z,99513.84
2023-03-29T00:31:14.015Z,99516.41
2023-03-29T00:35:16.693Z,99523.97
2023-03-29T00:39:22.088Z,99521.97
2023-03-29T00:43:24.790Z,99515.09
2023-03-29T00:47:35.624Z,99502.41
2023-03-29T00:51:41.495Z,99498.19
2023-03-29T00:55:46.703Z,99500.31
2023-03-29T00:59:50.572Z,99502.09
2023-03-29T01:04:26.275Z,99504.53
2023-03-29T01:08:58.627Z,99511.09
2023-03-29T01:13:19.288Z,99514.16
2023-03-29T01:17:22.102Z,99508.84
2023-03-29T01:21:32.749Z,99522.16
2023-03-29T01:25:40.531Z,99517.28
2023-03-29T01:29:49.137Z,99519.59
2023-03-29T01:33:58.955Z,99517.69
2023-03-29T01:38:15.491Z,99512.38
2023-03-29T01:42:51.498Z,99513.28
2023-03-29T01:47:04.455Z,99515.00
2023-03-29T01:51:12.896Z,99517.41
2023-03-29T01:55:26.441Z,99515.41
2023-03-29T01:59:32.425Z,99516.59
2023-03-29T02:03:42.414Z,99495.28
2023-03-29T02:07:50.519Z,99509.38
2023-03-29T02:11:57.398Z,99495.53
2023-03-29T02:16:03.134Z,99494.69
2023-03-29T02:20:27.789Z,99492.78
2023-03-29T02:24:34.694Z,99479.72
2023-03-29T02:28:37.391Z,99476.66
2023-03-29T02:32:49.621Z,99473.22
2023-03-29T02:37:00.139Z,99458.22
2023-03-29T02:41:03.155Z,99463.84
2023-03-29T02:45:08.491Z,99481.13
2023-03-29T02:49:12.159Z,99492.47
2023-03-29T02:53:23.079Z,99489.94
2023-03-29T02:57:27.194Z,99485.59
2023-03-29T03:01:29.403Z,99489.75
2023-03-29T03:05:31.637Z,99484.50
2023-03-29T03:09:34.388Z,99481.13
2023-03-29T03:13:36.608Z,99480.56
2023-03-29T03:17:40.233Z,99471.16
2023-03-29T03:21:44.569Z,99475.84
2023-03-29T03:25:48.051Z,99477.56
2023-03-29T03:29:50.375Z,99479.56
2023-03-29T03:34:31.232Z,99470.88
2023-03-29T03:38:36.214Z,99475.75
2023-03-29T03:42:40.432Z,99463.19
2023-03-29T03:46:44.132Z,99464.44
2023-03-29T03:50:50.583Z,99465.91
2023-03-29T03:54:53.251Z,99454.09
2023-03-29T03:59:13.997Z,99453.59
2023-03-29T04:03:27.959Z,99461.03
2023-03-29T04:07:30.554Z,99455.63
2023-03-29T04:11:43.240Z,99459.03
2023-03-29T04:15:49.930Z,99450.06
2023-03-29T04:19:52.234Z,99445.19
2023-03-29T04:23:54.958Z,99445.59
2023-03-29T04:27:57.832Z,99433.56
2023-03-29T04:32:17.715Z,99430.81
2023-03-29T04:36:34.505Z,99431.88
2023-03-29T04:40:38.415Z,99443.31
2023-03-29T04:44:47.794Z,99445.66
2023-03-29T04:48:57.499Z,99448.66
2023-03-29T04:53:09.187Z,99473.31
2023-03-29T04:57:11.417Z,99470.44
2023-03-29T05:01:39.750Z,99468.94
2023-03-29T05:05:41.888Z,99471.44
2023-03-29T05:09:44.414Z,99472.34
2023-03-29T05:13:47.772Z,99469.13
2023-03-29T05:17:50.157Z,99477.50
2023-03-29T05:21:53.474Z,99482.22
2023-03-29T05:25:58.960Z,99479.59
2023-03-29T05:30:01.781Z,99487.22
2023-03-29T05:34:09.374Z,99484.31
2023-03-29T05:38:17.127Z,99487.41
2023-03-29T05:42:22.488Z,99487.22
2023-03-29T05:46:29.520Z,99497.88
2023-03-29T05:50:37.281Z,99499.53
2023-03-29T05:54:41.626Z,99514.16
2023-03-29T05:58:46.757Z,99510.56
2023-03-29T06:02:50.975Z,99511.53
2023-03-29T06:06:53.270Z,99512.03
2023-03-29T06:11:02.448Z,99505.75
2023-03-29T06:15:29.026Z,99516.66
2023-03-29T06:19:36.641Z,99519.19
2023-03-29T06:23:40.281Z,99524.56
2023-03-29T06:27:42.586Z,99532.47
2023-03-29T06:31:46.217Z,99530.22
2023-03-29T06:36:08.832Z,99537.38
2023-03-29T06:40:11.466Z,99545.56
2023-03-29T06:44:18.711Z,99545.50
2023-03-29T06:48:31.805Z,99554.75
2023-03-29T06:52:35.448Z,99562.53
2023-03-29T06:56:37.690Z,99558.41
2023-03-29T07:00:44.325Z,99566.00
2023-03-29T07:04:51.809Z,99575.78
2023-03-29T07:09:00.717Z,99577.88
2023-03-29T07:13:20.783Z,99590.91
2023-03-29T07:17:25.255Z,99585.41
2023-03-29T07:21:28.861Z,99586.63
2023-03-29T07:25:34.362Z,99570.13
2023-03-29T07:29:37.297Z,99568.44
2023-03-29T07:33:40.001Z,99571.25
2023-03-29T07:37:43.048Z,99572.34
2023-03-29T07:41:45.754Z,99559.97
2023-03-29T07:45:48.830Z,99566.28
2023-03-29T07:49:51.002Z,99570.59
2023-03-29T07:53:53.811Z,99569.78
2023-03-29T07:58:11.624Z,99567.44
2023-03-29T08:02:13.908Z,99576.16
2023-03-29T08:06:19.948Z,99573.97
2023-03-29T08:10:28.740Z,99582.50
2023-03-29T08:14:39.362Z,99582.66
2023-03-29T08:18:52.868Z,99576.47
2023-03-29T08:22:58.356Z,99577.25
2023-03-29T08:27:04.537Z,99573.63
2023-03-29T08:31:07.895Z,99566.50
2023-03-29T08:35:10.875Z,99572.38
2023-03-29T08:39:25.080Z,99575.03
2023-03-29T08:44:12.166Z,99561.97
2023-03-29T08:48:33.977Z,99564.53
2023-03-29T08:53:04.630Z,99572.50
2023-03-29T08:57:26.078Z,99561.94
2023-03-29T09:01:36.346Z,99573.25
2023-03-29T09:05:45.575Z,99572.38
2023-03-29T09:09:53.483Z,99570.22
2023-03-29T09:14:51.270Z,99571.13
2023-03-29T09:19:01.188Z,99569.09
2023-03-29T09:23:38.684Z,99568.22
2023-03-29T09:28:17.513Z,99570.09
2023-03-29T09:32:39.685Z,99578.31
2023-03-29T09:36:52.666Z,99575.97
2023-03-29T09:41:06.869Z,99552.13
2023-03-29T09:45:10.917Z,99555.28
2023-03-29T09:49:25.329Z,99558.53
2023-03-29T09:53:27.717Z,99550.59
2023-03-29T09:57:43.932Z,99549.50
2023-03-29T10:01:48.450Z,99550.88
2023-03-29T10:05:54.629Z,99552.72
2023-03-29T10:09:57.080Z,99545.63
2023-03-29T10:14:27.966Z,99541.09
2023-03-29T10:18:39.274Z,99542.47
2023-03-29T10:22:48.786Z,99523.44
2023-03-29T10:26:55.720Z,99525.09
2023-03-29T10:31:01.071Z,99532.59
2023-03-29T10:35:15.760Z,99524.53
2023-03-29T10:39:19.229Z,99522.41
2023-03-29T10:43:24.753Z,99509.50
2023-03-29T10:47:34.486Z,99502.00
2023-03-29T10:51:37.574Z,99495.56
2023-03-29T10:56:26.124Z,99504.16
2023-03-29T11:01:03.625Z,99502.00
2023-03-29T11:05:24.704Z,99500.91
2023-03-29T11:09:43.405Z,99511.66
2023-03-29T11:13:49.792Z,99512.19
2023-03-29T11:18:00.986Z,99509.25
2023-03-29T11:22:15.900Z,99505.38
2023-03-29T11:26:24.678Z,99494.63
2023-03-29T11:30:44.386Z,99498.88
2023-03-29T11:35:21.094Z,99494.53
2023-03-29T11:39:43.329Z,99491.56
2023-03-29T11:44:11.579Z,99488.25
2023-03-29T11:48:25.047Z,99487.41
2023-03-29T11:52:38.144Z,99486.94
2023-03-29T11:57:02.172Z,99481.56
2023-03-29T12:01:15.034Z,99471.78
2023-03-29T12:05:22.298Z,99467.44
2023-03-29T12:09:39.675Z,99450.69
2023-03-29T12:13:52.614Z,99438.50
2023-03-29T12:18:16.661Z,99439.06
2023-03-29T12:22:19.297Z,99434.00
2023-03-29T12:27:12.579Z,99422.00
2023-03-29T12:31:29.222Z,99419.78
2023-03-29T12:35:59.184Z,99418.81
2023-03-29T12:40:47.388Z,99412.84
2023-03-29T12:45:18.272Z,99404.91
2023-03-29T12:49:31.817Z,99416.41
2023-03-29T12:53:37.158Z,99403.78
2023-03-29T12:57:42.946Z,99406.69
2023-03-29T13:02:03.016Z,99401.88
2023-03-29T13:06:09.456Z,99390.03
2023-03-29T13:10:34.338Z,99390.84
2023-03-29T13:14:40.798Z,99385.44
2023-03-29T13:19:14.875Z,99388.44
2023-03-29T13:23:26.517Z,99391.34
2023-03-29T13:27:50.802Z,99382.91
2023-03-29T13:32:13.645Z,99376.72
2023-03-29T13:36:39.373Z,99382.00
2023-03-29T13:40:44.323Z,99380.16
2023-03-29T13:44:49.309Z,99371.50
2023-03-29T13:49:00.885Z,99365.63
2023-03-29T13:53:31.171Z,99348.22
2023-03-29T13:57:40.847Z,99354.53
2023-03-29T14:01:57.373Z,99348.84
2023-03-29T14:06:02.622Z,99352.38
2023-03-29T14:10:05.943Z,99339.91
2023-03-29T14:14:10.026Z,99333.00
2023-03-29T14:18:16.609Z,99331.50
2023-03-29T14:22:21.986Z,99336.31
2023-03-29T14:26:30.578Z,99331.91
2023-03-29T14:30:32.793Z,99342.50
2023-03-29T14:34:34.820Z,99337.13
2023-03-29T14:38:37.901Z,99332.59
2023-03-29T14:42:41.291Z,99329.97
2023-03-29T14:46:45.565Z,99320.88
2023-03-29T14:50:48.051Z,99309.53
2023-03-29T14:54:53.366Z,99317.22
2023-03-29T14:58:56.760Z,99322.94
2023-03-29T15:03:02.904Z,99313.88
2023-03-29T15:07:05.462Z,99309.13
2023-03-29T15:11:23.425Z,99298.09
2023-03-29T15:15:25.903Z,99303.28
2023-03-29T15:19:28.356Z,99292.53
2023-03-29T15:23:46.781Z,99296.16
2023-03-29T15:27:51.438Z,99284.44
2023-03-29T15:31:59.111Z,99280.44
2023-03-29T15:36:02.556Z,99269.97
2023-03-29T15:40:09.945Z,99274.81
2023-03-29T15:44:15.372Z,99278.59
2023-03-29T15:48:24.586Z,99274.59
2023-03-29T15:52:26.730Z,99269.53
2023-03-29T15:56:29.299Z,99284.41
2023-03-29T16:00:31.627Z,99284.19
2023-03-29T16:04:33.686Z,99279.38
2023-03-29T16:08:35.934Z,99283.19
2023-03-29T16:12:38.719Z,99284.84
2023-03-29T16:16:41.005Z,99270.38
2023-03-29T16:20:43.243Z,99261.31
2023-03-29T16:24:45.682Z,99267.59
2023-03-29T16:28:47.816Z,99267.88
2023-03-29T16:32:50.138Z,99270.59
2023-03-29T16:36:53.157Z,99281.91
2023-03-29T16:40:56.442Z,99277.66
2023-03-29T16:44:58.725Z,99286.81
2023-03-29T16:49:00.795Z,99291.66
2023-03-29T16:53:03.204Z,99292.22
2023-03-29T16:57:07.339Z,99290.34
2023-03-29T17:01:14.802Z,99288.78
2023-03-29T17:05:18.005Z,99293.34
2023-03-29T17:09:20.324Z,99294.69
2023-03-29T17:13:24.049Z,99298.47
2023-03-29T17:17:26.199Z,99294.75
2023-03-29T17:21:29.624Z,99298.78
2023-03-29T17:25:32.025Z,99300.13
2023-03-29T17:29:35.421Z,99301.75
2023-03-29T17:33:37.960Z,99309.75
2023-03-29T17:37:40.303Z,99303.03
2023-03-29T17:41:42.803Z,99305.19
2023-03-29T17:45:46.421Z,99313.22
2023-03-29T17:49:48.636Z,99311.63
2023-03-29T17:53:52.423Z,99314.81
2023-03-29T17:57:54.846Z,99335.69
2023-03-29T18:01:57.529Z,99342.06
2023-03-29T18:05:59.741Z,99349.53
2023-03-29T18:10:02.468Z,99347.09
2023-03-29T18:14:05.349Z,99350.00
2023-03-29T18:18:07.741Z,99364.38
2023-03-29T18:22:09.918Z,99361.13
2023-03-29T18:26:12.402Z,99362.56
2023-03-29T18:30:16.862Z,99366.78
2023-03-29T18:34:19.056Z,99371.44
2023-03-29T18:38:22.694Z,99381.78
2023-03-29T18:42:24.919Z,99389.66
2023-03-29T18:46:30.638Z,99387.59
2023-03-29T18:50:36.138Z,99400.75
2023-03-29T18:54:38.736Z,99401.50
2023-03-29T18:58:41.227Z,99404.78
2023-03-29T19:02:43.514Z,99429.16
2023-03-29T19:06:46.164Z,99422.72
2023-03-29T19:10:48.569Z,99417.69
2023-03-29T19:14:50.673Z,99434.75
2023-03-29T19:18:52.757Z,99431.03
2023-03-29T19:22:54.849Z,99433.47
2023-03-29T19:26:57.564Z,99441.31
2023-03-29T19:31:02.008Z,99438.22
2023-03-29T19:35:04.948Z,99444.66
2023-03-29T19:39:07.348Z,99445.50
2023-03-29T19:43:09.623Z,99453.34
2023-03-29T19:47:12.403Z,99460.91
2023-03-29T19:51:14.681Z,99471.75
2023-03-29T19:55:17.980Z,99455.56
2023-03-29T19:59:20.468Z,99460.41
2023-03-29T20:03:22.557Z,99455.88
2023-03-29T20:07:24.984Z,99458.59
2023-03-29T20:11:27.363Z,99457.53
2023-03-29T20:15:29.605Z,99463.44
2023-03-29T20:19:31.677Z,99462.41
2023-03-29T20:23:34.695Z,99465.16
2023-03-29T20:27:36.939Z,99454.22
2023-03-29T20:31:39.126Z,99461.97
2023-03-29T20:35:41.301Z,99462.53
2023-03-29T20:39:43.431Z,99464.72
2023-03-29T20:43:46.353Z,99469.47
2023-03-29T20:47:57.678Z,99469.47
2023-03-29T20:52:00.109Z,99466.00
2023-03-29T20:56:03.426Z,99473.22
2023-03-29T21:00:12.950Z,99475.34
2023-03-29T21:04:15.280Z,99477.72
2023-03-29T21:08:17.737Z,99480.88
2023-03-29T21:12:20.356Z,99491.75
2023-03-29T21:16:22.710Z,99496.47
2023-03-29T21:20:25.128Z,99500.94
2023-03-29T21:24:27.285Z,99502.19
2023-03-29T21:28:30.565Z,99497.22
2023-03-29T21:32:32.700Z,99498.66
2023-03-29T21:36:34.846Z,99504.53
2023-03-29T21:40:37.210Z,99491.69
2023-03-29T21:44:39.253Z,99496.78
2023-03-29T21:48:41.984Z,99493.72
2023-03-29T21:52:44.362Z,99486.25
2023-03-29T21:56:47.816Z,99483.94
2023-03-29T22:00:50.200Z,99492.75
2023-03-29T22:04:53.366Z,99494.41
2023-03-29T22:08:56.089Z,99489.50
2023-03-29T22:13:00.185Z,99492.84
2023-03-29T22:17:06.278Z,99486.41
2023-03-29T22:21:30.876Z,99495.59
2023-03-29T22:25:32.975Z,99492.16
2023-03-29T22:29:35.077Z,99489.25
2023-03-29T22:33:37.889Z,99489.00
2023-03-29T22:37:42.009Z,99489.97
2023-03-29T22:41:44.121Z,99489.34
2023-03-29T22:45:46.378Z,99499.50
2023-03-29T22:49:48.437Z,99502.59
2023-03-29T22:53:50.835Z,99496.63
2023-03-29T22:57:53.009Z,99484.97
2023-03-29T23:01:55.522Z,99482.31
2023-03-29T23:05:59.383Z,99482.38
2023-03-29T23:10:01.577Z,99485.13
2023-03-29T23:14:07.716Z,99491.03
2023-03-29T23:18:13.181Z,99487.81
2023-03-29T23:22:15.363Z,99484.69
2023-03-29T23:26:17.605Z,99491.25
2023-03-29T23:30:21.701Z,99488.50
2023-03-29T23:34:23.738Z,99494.63
2023-03-29T23:38:26.691Z,99491.09
2023-03-29T23:42:29.455Z,99490.50
2023-03-29T23:46:32.639Z,99487.59
2023-03-29T23:50:34.931Z,99487.44
2023-03-29T23:54:37.235Z,99483.75
2023-03-29T23:58:39.407Z,99487.69
